Terminal Aerodrome Forecast
Issued by NWS Missoula, MT

Home | Current Version | Previous Version | Text Only | Print | Product List | Glossary On
Versions: 1 2 3 4 5 6 7 8 9 10 11 12 13 14
000
FTUS45 KMSO 061720
TAFMSO
TAF
KMSO 061720Z 0618/0718 VRB06KT 6SM HZ SKC
     FM062100 35012KT P6SM SKC
     FM070200 35007KT P6SM SKC=

USA.gov is the U.S. government's official web portal to all federal, state and local government web resources and services.